createdAt,value
2019-01-19T00:01:02.425Z,8.43
2019-01-19T00:04:03.121Z,14.27
2019-01-19T00:07:03.394Z,12.63
2019-01-19T00:10:06.099Z,9.60
2019-01-19T00:13:02.072Z,11.13
2019-01-19T00:15:50.244Z,8.60
2019-01-19T00:19:28.247Z,7.07
2019-01-19T00:22:40.041Z,14.10
2019-01-19T00:26:09.073Z,9.20
2019-01-19T00:28:44.691Z,10.80
2019-01-19T00:31:42.058Z,14.07
2019-01-19T00:34:52.491Z,10.23
2019-01-19T00:37:46.022Z,11.30
2019-01-19T00:41:06.367Z,11.30
2019-01-19T00:43:44.196Z,10.73
2019-01-19T00:46:58.027Z,14.30
2019-01-19T00:49:39.846Z,11.70
2019-01-19T00:52:52.835Z,11.13
2019-01-19T00:56:18.755Z,8.13
2019-01-19T00:58:52.518Z,12.00
2019-01-19T01:02:06.836Z,11.80
2019-01-19T01:05:06.123Z,9.30
2019-01-19T01:08:22.979Z,11.80
2019-01-19T01:11:16.452Z,14.10
2019-01-19T01:14:29.102Z,7.50
2019-01-19T01:17:46.813Z,10.60
2019-01-19T01:20:55.161Z,9.50
2019-01-19T01:24:04.847Z,9.07
2019-01-19T01:27:18.663Z,9.00
2019-01-19T01:30:41.505Z,9.87
2019-01-19T01:33:55.101Z,9.23
2019-01-19T01:36:51.889Z,16.67
2019-01-19T01:39:56.757Z,8.60
2019-01-19T01:43:03.868Z,9.63
2019-01-19T01:46:05.010Z,12.93
2019-01-19T01:49:06.143Z,13.77
2019-01-19T01:52:34.778Z,12.10
2019-01-19T01:55:16.502Z,11.03
2019-01-19T01:58:27.314Z,9.57
2019-01-19T02:01:12.943Z,14.50
2019-01-19T02:04:45.097Z,15.80
2019-01-19T02:08:17.080Z,11.90
2019-01-19T02:11:32.851Z,11.73
2019-01-19T02:14:30.071Z,11.73
2019-01-19T02:17:46.275Z,12.10
2019-01-19T02:20:55.573Z,10.37
2019-01-19T02:23:59.665Z,13.60
2019-01-19T02:27:22.451Z,14.50
2019-01-19T02:30:45.498Z,12.63
2019-01-19T02:34:04.031Z,11.17
2019-01-19T02:37:14.803Z,12.83
2019-01-19T02:40:11.806Z,14.97
2019-01-19T02:43:34.789Z,15.67
2019-01-19T02:46:45.796Z,18.03
2019-01-19T02:49:59.352Z,14.83
2019-01-19T02:52:55.212Z,12.53
2019-01-19T02:56:17.758Z,10.67
2019-01-19T02:59:01.377Z,13.07
2019-01-19T03:02:01.525Z,18.53
2019-01-19T03:05:39.518Z,13.90
2019-01-19T03:08:42.847Z,17.93
2019-01-19T03:12:00.418Z,14.90
2019-01-19T03:15:05.657Z,19.77
2019-01-19T03:18:22.837Z,18.80
2019-01-19T03:21:32.212Z,15.30
2019-01-19T03:24:47.134Z,18.10
2019-01-19T03:28:10.751Z,16.20
2019-01-19T03:31:02.351Z,15.80
2019-01-19T03:34:08.969Z,23.57
2019-01-19T03:37:01.016Z,17.60
2019-01-19T03:40:04.878Z,23.47
2019-01-19T03:43:19.213Z,23.37
2019-01-19T03:46:18.450Z,18.50
2019-01-19T03:49:38.174Z,17.70
2019-01-19T03:52:35.246Z,18.73
2019-01-19T03:55:39.242Z,16.33
2019-01-19T03:58:59.082Z,17.60
2019-01-19T04:01:54.635Z,26.33
2019-01-19T04:04:52.926Z,17.83
2019-01-19T04:08:06.109Z,21.70
2019-01-19T04:11:12.895Z,17.40
2019-01-19T04:14:17.660Z,19.60
2019-01-19T04:17:28.381Z,18.77
2019-01-19T04:20:29.813Z,18.00
2019-01-19T04:23:03.604Z,22.70
2019-01-19T04:25:44.132Z,21.97
2019-01-19T04:28:15.971Z,21.60
2019-01-19T04:30:45.975Z,22.07
2019-01-19T04:33:16.277Z,17.80
2019-01-19T04:35:46.487Z,21.53
2019-01-19T04:38:17.528Z,21.70
2019-01-19T04:40:48.458Z,21.50
2019-01-19T04:43:18.681Z,25.00
2019-01-19T04:45:49.027Z,21.37
2019-01-19T04:48:22.611Z,27.27
2019-01-19T04:50:53.678Z,25.03
2019-01-19T04:53:24.749Z,25.33
2019-01-19T04:55:55.048Z,23.30
2019-01-19T04:58:25.617Z,25.43
2019-01-19T05:00:56.653Z,22.03
2019-01-19T05:03:27.438Z,23.40
2019-01-19T05:05:57.475Z,20.77
2019-01-19T05:08:27.742Z,19.00
2019-01-19T05:10:57.695Z,22.97
2019-01-19T05:13:27.798Z,20.87
2019-01-19T05:15:58.089Z,25.60
2019-01-19T05:18:28.066Z,19.87
2019-01-19T05:20:58.222Z,25.87
2019-01-19T05:23:28.836Z,17.27
2019-01-19T05:25:58.922Z,20.57
2019-01-19T05:28:28.901Z,30.43
2019-01-19T05:30:59.309Z,23.73
2019-01-19T05:33:29.322Z,19.13
2019-01-19T05:35:59.629Z,19.50
2019-01-19T05:38:30.377Z,20.70
2019-01-19T05:41:00.506Z,20.73
2019-01-19T05:43:31.611Z,22.23
2019-01-19T05:46:01.700Z,18.37
2019-01-19T05:48:32.026Z,21.90
2019-01-19T05:51:01.997Z,20.53
2019-01-19T05:53:31.914Z,20.47
2019-01-19T05:56:02.097Z,22.43
2019-01-19T05:58:32.024Z,20.20
2019-01-19T06:01:01.965Z,22.83
2019-01-19T06:03:31.865Z,27.17
2019-01-19T06:06:02.573Z,22.73
2019-01-19T06:08:32.588Z,28.00
2019-01-19T06:11:03.187Z,23.70
2019-01-19T06:13:33.182Z,23.93
2019-01-19T06:16:04.203Z,26.33
2019-01-19T06:18:35.555Z,22.90
2019-01-19T06:21:08.087Z,23.83
2019-01-19T06:23:38.069Z,24.10
2019-01-19T06:26:09.953Z,27.67
2019-01-19T06:28:39.901Z,22.83
2019-01-19T06:31:10.063Z,24.83
2019-01-19T06:33:40.131Z,27.80
2019-01-19T06:36:10.164Z,29.73
2019-01-19T06:38:40.209Z,25.03
2019-01-19T06:41:10.352Z,30.47
2019-01-19T06:43:40.403Z,25.47
2019-01-19T06:46:10.376Z,28.20
2019-01-19T06:48:40.797Z,25.20
2019-01-19T06:51:10.755Z,25.23
2019-01-19T06:53:41.354Z,26.10
2019-01-19T06:56:11.331Z,29.60
2019-01-19T06:58:41.568Z,34.70
2019-01-19T07:01:14.848Z,27.03
2019-01-19T07:03:44.851Z,26.30
2019-01-19T07:06:15.291Z,23.13
2019-01-19T07:08:45.303Z,28.93
2019-01-19T07:11:15.234Z,27.40
2019-01-19T07:13:45.201Z,29.37
2019-01-19T07:16:15.158Z,26.00
2019-01-19T07:18:45.159Z,24.80
2019-01-19T07:21:15.207Z,29.00
2019-01-19T07:23:45.291Z,26.27
2019-01-19T07:26:16.027Z,30.93
2019-01-19T07:28:45.962Z,21.67
2019-01-19T07:31:15.930Z,25.40
2019-01-19T07:33:45.944Z,28.97
2019-01-19T07:36:15.851Z,26.43
2019-01-19T07:38:45.798Z,27.33
2019-01-19T07:41:15.739Z,24.37
2019-01-19T07:43:45.870Z,23.70
2019-01-19T07:46:16.096Z,22.13
2019-01-19T07:48:46.026Z,21.57
2019-01-19T07:51:16.235Z,20.30
2019-01-19T07:53:46.313Z,22.30
2019-01-19T07:56:16.203Z,21.93
2019-01-19T07:58:46.141Z,25.93
2019-01-19T08:01:16.104Z,21.73
2019-01-19T08:03:46.083Z,18.77
2019-01-19T08:06:16.029Z,19.00
2019-01-19T08:08:46.186Z,21.27
2019-01-19T08:11:16.150Z,19.67
2019-01-19T08:13:46.117Z,20.40
2019-01-19T08:16:16.049Z,18.70
2019-01-19T08:18:46.609Z,25.87
2019-01-19T08:21:16.666Z,21.73
2019-01-19T08:23:46.981Z,16.27
2019-01-19T08:26:17.089Z,19.50
2019-01-19T08:28:47.049Z,16.77
2019-01-19T08:31:17.973Z,19.77
2019-01-19T08:33:47.997Z,27.73
2019-01-19T08:36:18.417Z,17.30
2019-01-19T08:38:48.359Z,17.70
2019-01-19T08:41:18.309Z,17.13
2019-01-19T08:43:52.120Z,15.17
2019-01-19T08:46:22.002Z,15.30
2019-01-19T08:48:52.070Z,19.40
2019-01-19T08:51:22.037Z,13.70
2019-01-19T08:53:52.246Z,12.13
2019-01-19T08:56:22.254Z,15.03
2019-01-19T08:58:52.292Z,14.83
2019-01-19T09:01:22.334Z,23.13
2019-01-19T09:03:53.725Z,11.60
2019-01-19T09:06:24.141Z,14.53
2019-01-19T09:08:54.297Z,14.47
2019-01-19T09:11:24.454Z,12.50
2019-01-19T09:13:54.714Z,15.57
2019-01-19T09:16:24.902Z,13.33
2019-01-19T09:18:55.070Z,18.33
2019-01-19T09:21:25.046Z,17.00
2019-01-19T09:24:19.765Z,16.23
2019-01-19T09:26:51.091Z,18.97
2019-01-19T09:29:21.103Z,18.43
2019-01-19T09:31:54.441Z,19.67
2019-01-19T09:34:24.597Z,23.80
2019-01-19T09:36:54.569Z,23.17
2019-01-19T09:39:24.972Z,24.13
2019-01-19T09:41:54.914Z,22.97
2019-01-19T09:44:24.951Z,27.07
2019-01-19T09:46:54.885Z,24.40
2019-01-19T09:49:25.631Z,22.80
2019-01-19T09:51:55.630Z,27.40
2019-01-19T09:54:25.622Z,29.57
2019-01-19T09:56:55.699Z,32.73
2019-01-19T09:59:25.898Z,18.33
2019-01-19T10:01:56.342Z,26.33
2019-01-19T10:04:26.652Z,22.33
2019-01-19T10:06:56.889Z,23.57
2019-01-19T10:09:26.989Z,24.43
2019-01-19T10:11:57.359Z,20.30
2019-01-19T10:14:27.336Z,20.43
2019-01-19T10:16:57.404Z,22.87
2019-01-19T10:19:28.501Z,23.53
2019-01-19T10:21:58.536Z,24.83
2019-01-19T10:24:28.540Z,24.20
2019-01-19T10:26:58.926Z,23.70
2019-01-19T10:29:30.607Z,25.43
2019-01-19T10:32:00.941Z,21.57
2019-01-19T10:34:31.383Z,25.80
2019-01-19T10:37:01.562Z,23.60
2019-01-19T10:39:32.853Z,19.20
2019-01-19T10:42:03.319Z,24.40
2019-01-19T10:44:33.349Z,20.93
2019-01-19T10:47:03.681Z,18.87
2019-01-19T10:49:33.676Z,24.83
2019-01-19T10:52:03.870Z,17.50
2019-01-19T10:54:33.869Z,17.30
2019-01-19T10:57:04.163Z,18.97
2019-01-19T10:59:34.317Z,20.53
2019-01-19T11:02:05.102Z,17.00
2019-01-19T11:04:35.100Z,17.13
2019-01-19T11:07:05.216Z,21.30
2019-01-19T11:09:35.219Z,21.80
2019-01-19T11:12:05.310Z,22.67
2019-01-19T11:14:35.267Z,19.47
2019-01-19T11:17:05.518Z,14.00
2019-01-19T11:19:35.537Z,16.17
2019-01-19T11:22:05.609Z,14.20
2019-01-19T11:24:35.544Z,14.77
2019-01-19T11:27:08.481Z,18.20
2019-01-19T11:29:38.429Z,16.07
2019-01-19T11:32:08.565Z,21.23
2019-01-19T11:34:38.662Z,15.50
2019-01-19T11:37:08.641Z,20.00
2019-01-19T11:39:38.653Z,16.00
2019-01-19T11:42:08.713Z,17.60
2019-01-19T11:44:39.209Z,19.37
2019-01-19T11:47:09.237Z,18.47
2019-01-19T11:49:39.529Z,17.50
2019-01-19T11:52:09.682Z,19.90
2019-01-19T11:54:39.994Z,18.27
2019-01-19T11:57:09.973Z,22.10
2019-01-19T11:59:40.057Z,19.67
2019-01-19T12:02:10.177Z,23.30
2019-01-19T12:04:40.169Z,25.40
2019-01-19T12:07:10.101Z,23.67
2019-01-19T12:09:41.161Z,20.20
2019-01-19T12:12:11.382Z,22.50
2019-01-19T12:14:41.370Z,21.97
2019-01-19T12:17:11.369Z,21.13
2019-01-19T12:19:41.369Z,22.57
2019-01-19T12:22:11.314Z,23.40
2019-01-19T12:24:41.293Z,23.70
2019-01-19T12:27:11.391Z,21.43
2019-01-19T12:29:41.473Z,22.20
2019-01-19T12:32:14.533Z,23.57
2019-01-19T12:34:44.592Z,25.60
2019-01-19T12:37:15.102Z,21.43
2019-01-19T12:39:45.273Z,28.03
2019-01-19T12:42:34.201Z,26.77
2019-01-19T12:45:04.473Z,21.93
2019-01-19T12:47:34.550Z,23.27
2019-01-19T12:50:04.934Z,30.03
2019-01-19T12:52:34.908Z,22.57
2019-01-19T12:55:06.562Z,25.73
2019-01-19T12:57:36.517Z,24.13
2019-01-19T13:00:07.717Z,27.70
2019-01-19T13:02:37.869Z,26.33
2019-01-19T13:05:12.885Z,26.13
2019-01-19T13:07:42.958Z,25.00
2019-01-19T13:10:17.831Z,25.03
2019-01-19T13:12:59.910Z,28.60
2019-01-19T13:16:12.381Z,27.27
2019-01-19T13:19:07.456Z,28.97
2019-01-19T13:22:39.057Z,29.40
2019-01-19T13:25:58.941Z,24.23
2019-01-19T13:29:11.425Z,28.43
2019-01-19T13:32:10.870Z,21.63
2019-01-19T13:35:26.273Z,26.93
2019-01-19T13:38:26.279Z,25.43
2019-01-19T13:41:31.557Z,22.53
2019-01-19T13:44:34.489Z,23.37
2019-01-19T13:47:51.741Z,26.70
2019-01-19T13:51:11.321Z,22.27
2019-01-19T13:54:16.464Z,19.67
2019-01-19T13:57:13.475Z,23.60
2019-01-19T14:00:06.755Z,26.70
2019-01-19T14:03:06.238Z,30.63
2019-01-19T14:06:28.888Z,41.27
2019-01-19T14:09:39.794Z,24.10
2019-01-19T14:12:35.458Z,32.00
2019-01-19T14:15:48.473Z,24.47
2019-01-19T14:18:54.689Z,35.83
2019-01-19T14:22:14.566Z,29.47
2019-01-19T14:25:29.704Z,35.77
2019-01-19T14:28:49.818Z,36.43
2019-01-19T14:32:09.915Z,39.37
2019-01-19T14:35:18.823Z,51.30
2019-01-19T14:38:48.409Z,46.30
2019-01-19T14:42:04.481Z,56.30
2019-01-19T14:45:08.980Z,41.50
2019-01-19T14:48:11.907Z,43.70
2019-01-19T14:51:25.745Z,39.87
2019-01-19T14:54:51.478Z,35.13
2019-01-19T14:57:52.425Z,28.70
2019-01-19T15:00:55.003Z,22.73
2019-01-19T15:04:05.885Z,25.43
2019-01-19T15:07:19.394Z,25.27
2019-01-19T15:10:22.633Z,27.63
2019-01-19T15:13:24.577Z,33.77
2019-01-19T15:16:37.065Z,27.80
2019-01-19T15:19:45.065Z,21.13
2019-01-19T15:22:42.645Z,22.47
2019-01-19T15:25:36.618Z,25.37
2019-01-19T15:28:38.616Z,24.87
2019-01-19T15:31:31.214Z,26.53
2019-01-19T15:34:35.269Z,24.20
2019-01-19T15:37:30.178Z,23.50
2019-01-19T15:40:17.314Z,25.90
2019-01-19T15:43:17.775Z,30.37
2019-01-19T15:46:23.641Z,27.60
2019-01-19T15:49:35.150Z,28.50
2019-01-19T15:52:27.818Z,23.87
2019-01-19T15:55:21.394Z,25.53
2019-01-19T15:58:14.286Z,24.57
2019-01-19T16:01:37.178Z,20.83
2019-01-19T16:04:43.834Z,24.17
2019-01-19T16:08:07.297Z,24.70
2019-01-19T16:11:21.419Z,29.37
2019-01-19T16:14:31.374Z,32.20
2019-01-19T16:17:36.313Z,24.50
2019-01-19T16:20:42.601Z,28.47
2019-01-19T16:23:57.535Z,27.90
2019-01-19T16:27:06.812Z,28.27
2019-01-19T16:30:14.197Z,28.03
2019-01-19T16:33:31.249Z,26.03
2019-01-19T16:36:36.029Z,18.20
2019-01-19T16:39:52.778Z,27.13
2019-01-19T16:43:15.757Z,26.37
2019-01-19T16:46:22.284Z,31.47
2019-01-19T16:49:54.722Z,28.47
2019-01-19T16:53:13.381Z,22.63
2019-01-19T16:56:18.366Z,28.83
2019-01-19T16:59:47.714Z,27.27
2019-01-19T17:02:32.485Z,25.90
2019-01-19T17:05:41.202Z,31.17
2019-01-19T17:08:46.983Z,24.90
2019-01-19T17:12:05.578Z,27.50
2019-01-19T17:15:13.319Z,31.53
2019-01-19T17:18:08.531Z,33.10
2019-01-19T17:21:30.230Z,28.87
2019-01-19T17:24:36.651Z,26.27
2019-01-19T17:27:35.714Z,27.13
2019-01-19T17:30:56.014Z,29.50
2019-01-19T17:33:49.004Z,27.27
2019-01-19T17:36:43.912Z,23.17
2019-01-19T17:39:54.083Z,25.13
2019-01-19T17:43:06.512Z,24.70
2019-01-19T17:46:01.131Z,21.73
2019-01-19T17:48:45.945Z,26.10
2019-01-19T17:52:14.857Z,23.30
2019-01-19T17:55:07.853Z,21.53
2019-01-19T17:57:54.086Z,21.03
2019-01-19T18:01:14.385Z,26.33
2019-01-19T18:04:09.418Z,29.50
2019-01-19T18:07:28.949Z,26.00
2019-01-19T18:10:30.395Z,24.30
2019-01-19T18:13:25.030Z,25.57
2019-01-19T18:16:47.842Z,24.37
2019-01-19T18:19:37.394Z,23.53
2019-01-19T18:22:38.760Z,23.33
2019-01-19T18:25:29.073Z,21.83
2019-01-19T18:28:41.410Z,20.33
2019-01-19T18:32:03.618Z,28.47
2019-01-19T18:35:06.685Z,19.57
2019-01-19T18:38:17.181Z,20.60
2019-01-19T18:41:18.247Z,18.77
2019-01-19T18:44:17.428Z,23.00
2019-01-19T18:47:46.567Z,21.90
2019-01-19T18:51:11.354Z,21.60
2019-01-19T18:54:31.194Z,19.67
2019-01-19T18:57:37.419Z,20.47
2019-01-19T19:00:27.316Z,23.03
2019-01-19T19:03:34.028Z,20.77
2019-01-19T19:06:39.865Z,20.90
2019-01-19T19:09:39.317Z,23.73
2019-01-19T19:13:07.957Z,18.20
2019-01-19T19:16:31.985Z,20.73
2019-01-19T19:19:38.578Z,18.40
2019-01-19T19:23:16.362Z,19.30
2019-01-19T19:26:14.511Z,21.00
2019-01-19T19:29:10.978Z,25.83
2019-01-19T19:32:07.012Z,21.07
2019-01-19T19:35:05.059Z,21.50
2019-01-19T19:38:14.561Z,24.63
2019-01-19T19:41:15.662Z,21.10
2019-01-19T19:44:23.981Z,26.30
2019-01-19T19:47:26.902Z,21.57
2019-01-19T19:50:36.357Z,21.23
2019-01-19T19:53:08.047Z,18.07
2019-01-19T19:55:36.428Z,22.57
2019-01-19T19:58:06.532Z,20.03
2019-01-19T20:00:36.522Z,18.27
2019-01-19T20:03:06.938Z,18.87
2019-01-19T20:05:37.226Z,17.60
2019-01-19T20:08:08.809Z,23.40
2019-01-19T20:10:39.058Z,19.90
2019-01-19T20:13:09.440Z,20.23
2019-01-19T20:15:39.537Z,18.30
2019-01-19T20:18:09.941Z,18.17
2019-01-19T20:20:39.990Z,22.10
2019-01-19T20:23:10.213Z,23.67
2019-01-19T20:25:43.558Z,20.00
2019-01-19T20:28:18.670Z,17.90
2019-01-19T20:30:48.848Z,21.17
2019-01-19T20:33:20.186Z,19.43
2019-01-19T20:35:52.914Z,19.67
2019-01-19T20:38:23.252Z,24.30
2019-01-19T20:40:53.289Z,22.83
2019-01-19T20:43:23.246Z,22.60
2019-01-19T20:45:56.533Z,17.83
2019-01-19T20:48:28.314Z,20.07
2019-01-19T20:51:09.165Z,24.60
2019-01-19T20:53:39.301Z,22.50
2019-01-19T20:56:09.401Z,20.63
2019-01-19T20:58:39.363Z,20.70
2019-01-19T21:01:09.667Z,17.80
2019-01-19T21:03:44.866Z,19.37
2019-01-19T21:06:16.209Z,19.23
2019-01-19T21:08:46.147Z,21.10
2019-01-19T21:11:18.975Z,17.33
2019-01-19T21:13:51.525Z,17.93
2019-01-19T21:16:21.704Z,18.67
2019-01-19T21:18:51.765Z,18.70
2019-01-19T21:21:21.703Z,17.97
2019-01-19T21:23:51.882Z,24.37
2019-01-19T21:26:22.269Z,15.70
2019-01-19T21:28:56.837Z,16.60
2019-01-19T21:31:26.809Z,19.17
2019-01-19T21:33:57.138Z,17.60
2019-01-19T21:36:27.177Z,17.87
2019-01-19T21:38:57.182Z,12.93
2019-01-19T21:41:27.397Z,17.60
2019-01-19T21:43:59.161Z,15.60
2019-01-19T21:46:29.922Z,17.60
2019-01-19T21:49:01.644Z,17.63
2019-01-19T21:51:35.517Z,15.20
2019-01-19T21:54:06.176Z,14.47
2019-01-19T21:56:36.246Z,14.10
2019-01-19T21:59:06.437Z,18.13
2019-01-19T22:01:36.724Z,17.83
2019-01-19T22:04:07.074Z,14.70
2019-01-19T22:06:37.053Z,16.43
2019-01-19T22:09:08.961Z,12.03
2019-01-19T22:11:41.013Z,13.13
2019-01-19T22:14:11.643Z,13.23
2019-01-19T22:16:41.635Z,13.23
2019-01-19T22:19:11.731Z,14.43
2019-01-19T22:21:42.148Z,14.13
2019-01-19T22:24:16.041Z,14.93
2019-01-19T22:26:49.186Z,14.13
2019-01-19T22:29:19.323Z,14.40
2019-01-19T22:31:49.262Z,13.00
2019-01-19T22:34:20.079Z,11.23
2019-01-19T22:36:50.074Z,14.03
2019-01-19T22:39:20.101Z,10.63
2019-01-19T22:41:49.977Z,13.33
2019-01-19T22:44:20.004Z,15.77
2019-01-19T22:46:50.122Z,13.80
2019-01-19T22:49:25.793Z,10.53
2019-01-19T22:51:55.919Z,10.50
2019-01-19T22:54:26.373Z,10.47
2019-01-19T22:56:56.730Z,9.70
2019-01-19T22:59:26.760Z,9.87
2019-01-19T23:02:03.365Z,9.77
2019-01-19T23:04:33.889Z,13.50
2019-01-19T23:07:03.827Z,12.00
2019-01-19T23:09:34.333Z,13.17
2019-01-19T23:12:06.866Z,13.53
2019-01-19T23:14:37.236Z,12.30
2019-01-19T23:17:07.205Z,9.40
2019-01-19T23:19:37.109Z,9.03
2019-01-19T23:22:07.368Z,9.13
2019-01-19T23:24:37.369Z,11.10
2019-01-19T23:27:07.970Z,9.00
2019-01-19T23:29:38.472Z,13.37
2019-01-19T23:32:08.721Z,10.33
2019-01-19T23:34:38.903Z,7.80
2019-01-19T23:37:09.449Z,8.80
2019-01-19T23:39:39.847Z,10.00
2019-01-19T23:42:09.853Z,11.70
2019-01-19T23:44:40.126Z,9.13
2019-01-19T23:47:10.296Z,10.40
2019-01-19T23:49:40.201Z,10.83
2019-01-19T23:52:10.240Z,9.33
2019-01-19T23:54:40.213Z,11.93
2019-01-19T23:57:10.269Z,13.80
2019-01-19T23:59:40.250Z,15.07
